Time;durP1;ratioP1;P1;durP2;ratioP2;P2;SDS_P1;SDS_P2;PMS_P1;PMS_P2;Temp;Humidity;BMP_temperature;BMP_pressure;BME280_temperature;BME280_humidity;BME280_pressure;Samples;Min_cycle;Max_cycle;Signal;HPM_P1;HPM_P2
2022/01/03 00:01:06;;;;;;;26.40;5.20;;;;;;;11.44;100.00;97791.38;5074493;28;20892;-58
2022/01/03 00:03:32;;;;;;;21.40;4.13;;;;;;;11.40;100.00;97789.84;5080349;28;20024;-58
2022/01/03 00:05:57;;;;;;;18.92;4.22;;;;;;;11.54;100.00;97788.28;5075392;28;20053;-56
2022/01/03 00:08:23;;;;;;;28.67;5.32;;;;;;;10.93;100.00;97794.59;5073150;28;20667;-56
2022/01/03 00:10:51;;;;;;;22.17;4.72;;;;;;;11.45;100.00;97790.47;5079483;27;20043;-58
2022/01/03 00:13:19;;;;;;;28.08;5.38;;;;;;;11.53;100.00;97783.94;5078573;28;20097;-57
2022/01/03 00:15:45;;;;;;;21.67;4.55;;;;;;;11.48;100.00;97780.72;5077211;27;20817;-57
2022/01/03 00:18:10;;;;;;;21.00;4.45;;;;;;;11.68;100.00;97773.69;5076481;28;20039;-58
2022/01/03 00:20:38;;;;;;;22.90;4.55;;;;;;;11.41;100.00;97779.31;5077940;28;20517;-57
2022/01/03 00:23:08;;;;;;;24.77;4.53;;;;;;;11.24;100.00;97759.22;5082253;28;20062;-57
2022/01/03 00:25:36;;;;;;;27.92;5.13;;;;;;;11.38;100.00;97762.03;5075558;28;20078;-60
2022/01/03 00:28:11;;;;;;;35.55;5.55;;;;;;;11.51;100.00;97758.84;5073537;28;20031;-59
2022/01/03 00:30:41;;;;;;;27.25;5.32;;;;;;;11.34;100.00;97755.28;5072472;28;20039;-58
2022/01/03 00:33:07;;;;;;;34.88;6.45;;;;;;;11.43;100.00;97779.25;5072095;28;20081;-58
2022/01/03 00:35:36;;;;;;;29.63;5.50;;;;;;;11.53;100.00;97767.44;5077646;28;20150;-57
2022/01/03 00:38:02;;;;;;;35.45;5.53;;;;;;;11.34;100.00;97768.34;5074080;28;20029;-57
2022/01/03 00:40:28;;;;;;;36.78;6.07;;;;;;;11.33;100.00;97768.41;5073321;28;20070;-57
2022/01/03 00:42:53;;;;;;;26.23;5.28;;;;;;;11.38;100.00;97759.41;5071769;28;20028;-57
2022/01/03 00:45:19;;;;;;;26.02;5.20;;;;;;;11.33;100.00;97755.34;5086818;27;20040;-58
2022/01/03 00:47:47;;;;;;;29.63;5.50;;;;;;;11.18;100.00;97756.91;5070269;28;20024;-58
2022/01/03 00:50:15;;;;;;;27.58;5.10;;;;;;;11.46;100.00;97750.38;5070453;28;20032;-60
2022/01/03 00:52:42;;;;;;;26.27;5.22;;;;;;;11.53;100.00;97751.78;5072988;28;20020;-57
2022/01/03 00:55:08;;;;;;;26.75;5.18;;;;;;;11.40;100.00;97740.25;5071940;28;20058;-57
2022/01/03 00:58:03;;;;;;;28.98;5.30;;;;;;;11.88;100.00;97751.78;5072852;28;20020;-58
2022/01/03 01:00:31;;;;;;;33.38;5.80;;;;;;;11.37;100.00;97744.66;5077246;28;20061;-59
2022/01/03 01:03:00;;;;;;;23.80;4.93;;;;;;;11.74;100.00;97750.72;5072156;28;20615;-57
2022/01/03 01:05:26;;;;;;;30.67;5.28;;;;;;;11.67;100.00;97748.47;5073353;28;20126;-57
2022/01/03 01:07:56;;;;;;;28.77;5.45;;;;;;;11.52;98.75;97752.69;5072157;28;20031;-60
2022/01/03 01:10:25;;;;;;;29.08;5.30;;;;;;;11.55;98.90;97765.59;5071651;28;20031;-58
2022/01/03 01:12:51;;;;;;;27.48;5.40;;;;;;;11.57;100.00;97761.97;5075230;28;20016;-57
2022/01/03 01:15:16;;;;;;;27.17;4.90;;;;;;;11.29;100.00;97764.25;5070758;28;20120;-58
2022/01/03 01:17:42;;;;;;;25.55;5.10;;;;;;;11.36;100.00;97742.97;5068296;28;20020;-56
2022/01/03 01:20:09;;;;;;;27.20;5.38;;;;;;;11.37;99.61;97742.06;5070127;28;20378;-59
2022/01/03 01:22:35;;;;;;;33.53;6.13;;;;;;;11.62;96.88;97750.47;5070387;28;20031;-58
2022/01/03 01:27:49;;;;;;;29.27;5.70;;;;;;;11.63;100.00;97747.75;5070898;28;20036;-59
2022/01/03 01:30:21;;;;;;;30.70;5.68;;;;;;;11.74;100.00;97750.72;5074279;28;20133;-56
2022/01/03 01:32:48;;;;;;;;;;;;;;;11.55;99.91;97744.69;5073875;28;20071;-56
2022/01/03 01:35:14;;;;;;;25.52;4.75;;;;;;;11.72;100.00;97752.53;5071266;28;20930;-57
2022/01/03 01:37:41;;;;;;;27.38;5.00;;;;;;;11.66;100.00;97749.41;5069329;28;20507;-56
2022/01/03 01:40:06;;;;;;;27.33;4.88;;;;;;;11.54;95.78;97735.16;5072010;27;20110;-56
2022/01/03 01:42:35;;;;;;;28.60;5.18;;;;;;;11.99;100.00;97738.22;5072106;28;20296;-57
2022/01/03 01:45:08;;;;;;;25.63;4.47;;;;;;;11.71;97.39;97727.34;5067154;28;20060;-55
2022/01/03 01:47:39;;;;;;;30.95;4.95;;;;;;;11.48;96.03;97727.63;5071831;28;20041;-57
2022/01/03 01:50:07;;;;;;;26.17;4.70;;;;;;;12.34;100.00;97733.78;5074977;28;20663;-56
2022/01/03 01:52:36;;;;;;;24.95;4.55;;;;;;;12.07;99.56;97736.03;5071960;28;20044;-58
2022/01/03 01:55:08;;;;;;;21.60;4.35;;;;;;;12.59;100.00;97730.72;5080057;28;20834;-56
2022/01/03 01:57:59;;;;;;;26.92;4.47;;;;;;;12.70;99.21;97732.72;5070214;28;20086;-60
2022/01/03 02:00:25;;;;;;;21.45;3.75;;;;;;;12.80;93.29;97733.94;5074865;28;20123;-59
2022/01/03 02:03:18;;;;;;;23.83;4.15;;;;;;;13.71;91.79;97725.41;5076314;28;20071;-58
2022/01/03 02:05:52;;;;;;;23.95;4.15;;;;;;;13.25;79.49;97729.72;5075131;28;20056;-58
2022/01/03 02:08:49;;;;;;;23.00;3.85;;;;;;;13.15;95.74;97725.91;5070633;28;20055;-56
2022/01/03 02:11:42;;;;;;;26.33;4.38;;;;;;;13.30;87.11;97704.13;5068938;28;20039;-57
2022/01/03 02:14:08;;;;;;;22.83;3.78;;;;;;;14.12;92.93;97690.69;5070867;28;20051;-56
2022/01/03 02:16:35;;;;;;;21.42;4.20;;;;;;;14.71;100.00;97736.06;5073403;28;20043;-59
2022/01/03 02:19:00;;;;;;;19.60;3.88;;;;;;;14.41;93.94;97784.22;5074204;28;20020;-58
2022/01/03 02:21:25;;;;;;;20.13;3.65;;;;;;;13.01;100.00;97833.19;5073457;28;20040;-57
2022/01/03 02:23:51;;;;;;;22.85;3.85;;;;;;;12.26;100.00;97843.16;5072575;28;20039;-56
2022/01/03 02:26:16;;;;;;;20.20;3.45;;;;;;;11.19;100.00;97844.75;5069144;28;20044;-59
2022/01/03 02:28:41;;;;;;;19.98;3.58;;;;;;;11.12;100.00;97892.94;5076271;28;20097;-58
2022/01/03 02:31:07;;;;;;;19.30;3.53;;;;;;;11.92;100.00;97878.81;5074522;28;20036;-56
2022/01/03 02:33:33;;;;;;;22.13;3.80;;;;;;;11.85;100.00;97877.38;5075269;28;20596;-58
2022/01/03 02:35:58;;;;;;;21.52;3.72;;;;;;;11.92;100.00;97884.03;5074345;28;20035;-58
2022/01/03 02:38:24;;;;;;;24.27;4.30;;;;;;;12.97;100.00;97892.69;5073722;28;20027;-57
2022/01/03 02:40:50;;;;;;;18.67;3.50;;;;;;;11.14;100.00;97897.19;5073171;28;20089;-57
2022/01/03 02:43:15;;;;;;;22.40;3.63;;;;;;;11.36;100.00;97894.44;5071239;28;20043;-59
2022/01/03 02:45:41;;;;;;;20.15;3.25;;;;;;;10.78;100.00;97926.56;5074762;28;20528;-57
2022/01/03 02:48:12;;;;;;;22.83;3.63;;;;;;;11.04;100.00;97913.31;5078341;28;20457;-57
2022/01/03 02:50:39;;;;;;;23.70;3.80;;;;;;;10.67;100.00;97894.88;5076260;28;20494;-57
2022/01/03 02:53:04;;;;;;;18.70;2.97;;;;;;;10.22;100.00;97916.75;5071041;28;20853;-57
2022/01/03 02:55:31;;;;;;;19.38;3.30;;;;;;;10.08;100.00;97909.47;5073206;28;20040;-57
2022/01/03 02:58:05;;;;;;;26.15;3.83;;;;;;;10.12;100.00;97926.69;5075401;28;20032;-56
2022/01/03 03:00:31;;;;;;;22.20;3.88;;;;;;;10.90;100.00;97919.13;5072390;28;20036;-57
2022/01/03 03:02:57;;;;;;;23.75;3.80;;;;;;;10.73;100.00;97922.47;5072947;28;20028;-57
2022/01/03 03:05:23;;;;;;;24.85;4.22;;;;;;;10.94;100.00;97921.56;5076213;28;20047;-56
2022/01/03 03:07:49;;;;;;;18.20;3.10;;;;;;;10.80;100.00;97908.25;5073306;28;20088;-57
2022/01/03 03:10:18;;;;;;;23.85;4.03;;;;;;;11.51;100.00;97897.28;5069220;28;20102;-57
2022/01/03 03:12:44;;;;;;;19.05;3.72;;;;;;;11.37;100.00;97888.28;5073007;28;20039;-56
2022/01/03 03:15:12;;;;;;;18.83;3.05;;;;;;;9.79;100.00;97861.16;5073511;28;20024;-58
2022/01/03 03:17:39;;;;;;;24.33;3.78;;;;;;;10.73;100.00;97876.38;5071525;28;20024;-57
2022/01/03 03:20:09;;;;;;;20.35;3.58;;;;;;;10.21;100.00;97888.97;5073546;28;20753;-58
2022/01/03 03:22:36;;;;;;;18.17;3.53;;;;;;;10.53;100.00;97895.50;5077739;28;20130;-57
2022/01/03 03:25:08;;;;;;;19.27;3.55;;;;;;;11.33;100.00;97901.56;5076277;28;20090;-56
2022/01/03 03:27:37;;;;;;;20.63;3.70;;;;;;;10.98;100.00;97901.38;5073092;28;20040;-56
2022/01/03 03:30:03;;;;;;;22.35;3.47;;;;;;;10.46;100.00;97908.84;5074501;28;20020;-56
2022/01/03 03:32:30;;;;;;;17.83;3.40;;;;;;;10.69;100.00;97920.91;5085344;28;20036;-58
2022/01/03 03:34:55;;;;;;;19.45;3.40;;;;;;;11.12;100.00;97914.69;5074304;28;20115;-57
2022/01/03 03:37:21;;;;;;;22.58;3.38;;;;;;;10.01;100.00;97876.75;5069755;28;20134;-56
2022/01/03 03:39:46;;;;;;;18.63;3.13;;;;;;;9.84;100.00;97856.59;5075564;28;20111;-57
2022/01/03 03:42:12;;;;;;;23.25;3.70;;;;;;;10.77;100.00;97848.38;5073301;28;20071;-56
2022/01/03 03:44:38;;;;;;;22.92;3.58;;;;;;;10.73;100.00;97875.50;5074875;28;20085;-56
2022/01/03 03:47:05;;;;;;;22.75;3.47;;;;;;;10.54;100.00;97881.53;5073791;28;20040;-56
2022/01/03 03:49:31;;;;;;;21.98;3.55;;;;;;;10.41;100.00;97875.16;5072396;28;20650;-57
2022/01/03 03:51:58;;;;;;;19.77;3.17;;;;;;;9.98;100.00;97850.81;5068694;28;20094;-55
2022/01/03 03:54:23;;;;;;;24.83;3.97;;;;;;;10.82;100.00;97863.84;5089631;27;20035;-56
2022/01/03 03:56:49;;;;;;;26.23;4.05;;;;;;;10.30;100.00;97887.75;5078077;28;20040;-57
2022/01/03 03:59:14;;;;;;;22.20;3.58;;;;;;;10.23;100.00;97903.63;5083134;28;20035;-56
2022/01/03 04:01:39;;;;;;;22.42;3.40;;;;;;;10.41;100.00;97901.22;5072119;28;20055;-56
2022/01/03 04:04:05;;;;;;;23.00;3.35;;;;;;;9.70;100.00;97898.81;5070974;28;20556;-57
2022/01/03 04:06:30;;;;;;;22.40;3.33;;;;;;;9.79;100.00;97908.88;5071699;28;20831;-56
2022/01/03 04:08:56;;;;;;;22.13;3.28;;;;;;;9.89;100.00;97904.16;5077690;28;20036;-56
2022/01/03 04:11:23;;;;;;;23.23;3.40;;;;;;;9.51;100.00;97909.09;5076226;28;20037;-56
2022/01/03 04:13:49;;;;;;;26.40;3.78;;;;;;;9.79;100.00;97885.44;5072810;28;20567;-57
2022/01/03 04:16:15;;;;;;;24.50;3.65;;;;;;;10.08;100.00;97883.41;5078367;28;20130;-56
2022/01/03 04:18:40;;;;;;;21.58;3.15;;;;;;;9.82;100.00;97882.72;5077172;28;20148;-57
2022/01/03 04:21:05;;;;;;;23.30;3.95;;;;;;;10.38;100.00;97891.78;5073112;28;20509;-57
2022/01/03 04:23:31;;;;;;;26.38;3.92;;;;;;;10.84;100.00;97899.38;5070156;28;20020;-58
2022/01/03 04:25:57;;;;;;;20.13;3.20;;;;;;;10.83;100.00;97905.53;5073726;28;20084;-56
2022/01/03 04:28:22;;;;;;;22.98;3.33;;;;;;;10.71;100.00;97903.44;5081103;28;20393;-56
2022/01/03 04:30:48;;;;;;;22.67;3.20;;;;;;;9.90;100.00;97915.44;5076855;28;20646;-56
2022/01/03 04:33:13;;;;;;;24.27;3.78;;;;;;;10.43;100.00;97907.22;5071179;28;20037;-56
2022/01/03 04:35:39;;;;;;;20.30;3.22;;;;;;;9.90;100.00;97910.22;5077144;28;20093;-56
2022/01/03 04:38:05;;;;;;;22.02;3.50;;;;;;;10.24;100.00;97912.31;5074457;28;21066;-60
2022/01/03 04:40:31;;;;;;;23.40;3.67;;;;;;;10.01;100.00;97902.81;5075254;28;20101;-57
2022/01/03 04:42:56;;;;;;;25.95;3.80;;;;;;;9.96;100.00;97902.16;5094569;27;20031;-57
2022/01/03 04:45:22;;;;;;;22.30;3.17;;;;;;;10.05;100.00;97899.16;5073565;28;20114;-57
2022/01/03 04:47:48;;;;;;;23.02;3.63;;;;;;;9.58;100.00;97899.31;5081353;28;20024;-57
2022/01/03 04:50:14;;;;;;;25.65;4.18;;;;;;;10.53;100.00;97908.53;5077547;28;20029;-59
2022/01/03 04:52:39;;;;;;;27.13;3.72;;;;;;;10.09;100.00;97905.97;5075521;28;20035;-60
2022/01/03 04:55:04;;;;;;;28.08;3.78;;;;;;;9.65;100.00;97906.81;5092618;27;20076;-56
2022/01/03 04:57:30;;;;;;;25.67;4.00;;;;;;;9.88;100.00;97912.03;5085579;27;20112;-57
2022/01/03 04:59:55;;;;;;;27.20;4.07;;;;;;;9.93;100.00;97910.09;5074033;28;20035;-57
2022/01/03 05:02:21;;;;;;;27.88;4.18;;;;;;;9.89;100.00;97900.69;5073765;28;20126;-56
2022/01/03 05:04:46;;;;;;;26.83;3.95;;;;;;;10.27;100.00;97898.31;5070256;28;20081;-57
2022/01/03 05:07:11;;;;;;;24.33;3.67;;;;;;;11.14;100.00;97896.34;5074813;28;20037;-60
2022/01/03 05:09:37;;;;;;;26.98;4.30;;;;;;;10.77;100.00;97901.41;5077254;28;20084;-58
2022/01/03 05:12:03;;;;;;;27.83;4.35;;;;;;;10.12;100.00;97900.63;5076664;28;20036;-56
2022/01/03 05:14:28;;;;;;;24.45;3.90;;;;;;;11.59;100.00;97889.91;5071755;28;20176;-55
2022/01/03 05:16:54;;;;;;;25.80;4.35;;;;;;;10.90;100.00;97893.91;5074373;28;20449;-56
2022/01/03 05:19:19;;;;;;;24.08;4.00;;;;;;;10.97;100.00;97900.56;5074471;28;20074;-55
2022/01/03 05:21:46;;;;;;;29.27;4.30;;;;;;;10.49;100.00;97898.28;5077613;28;20040;-57
2022/01/03 05:24:12;;;;;;;25.40;3.45;;;;;;;10.29;100.00;97888.66;5074493;28;20041;-56
2022/01/03 05:26:37;;;;;;;27.17;4.43;;;;;;;10.88;100.00;97902.69;5078880;28;20669;-59
2022/01/03 05:29:03;;;;;;;27.67;4.13;;;;;;;11.38;100.00;97886.53;5077962;28;20118;-56
2022/01/03 05:31:28;;;;;;;21.95;3.33;;;;;;;10.46;100.00;97894.06;5076030;28;20752;-56
2022/01/03 05:33:55;;;;;;;25.30;3.88;;;;;;;10.93;100.00;97893.75;5071912;28;20126;-56
2022/01/03 05:36:20;;;;;;;30.15;4.65;;;;;;;11.69;100.00;97891.19;5071904;28;20075;-56
2022/01/03 05:38:45;;;;;;;23.55;3.83;;;;;;;10.85;100.00;97890.63;5079477;28;20036;-58
2022/01/03 05:41:11;;;;;;;25.92;4.07;;;;;;;10.14;100.00;97896.19;5076958;28;20050;-57
2022/01/03 05:43:37;;;;;;;27.10;3.80;;;;;;;10.01;100.00;97893.22;5072363;28;20541;-58
2022/01/03 05:46:03;;;;;;;20.83;3.60;;;;;;;10.62;100.00;97891.63;5071067;28;20101;-56
2022/01/03 05:48:28;;;;;;;22.00;3.45;;;;;;;10.49;100.00;97888.69;5073341;28;20028;-57
2022/01/03 05:50:54;;;;;;;26.05;4.03;;;;;;;10.87;100.00;97901.84;5074690;28;20067;-56
2022/01/03 05:53:19;;;;;;;32.22;4.55;;;;;;;10.63;100.00;97895.09;5074035;28;20041;-57
2022/01/03 05:55:46;;;;;;;22.33;3.53;;;;;;;10.58;100.00;97896.13;5074101;28;20658;-57
2022/01/03 05:58:13;;;;;;;24.52;3.83;;;;;;;10.30;100.00;97908.63;5074001;28;20068;-58
2022/01/03 06:00:39;;;;;;;21.38;3.35;;;;;;;10.26;100.00;97901.84;5070371;28;20036;-56
2022/01/03 06:03:04;;;;;;;23.90;3.50;;;;;;;10.40;100.00;97905.59;5062857;28;20035;-57
2022/01/03 06:05:42;;;;;;;22.90;3.63;;;;;;;11.10;100.00;97910.41;5076600;28;20032;-55
2022/01/03 06:08:08;;;;;;;19.05;3.22;;;;;;;11.20;100.00;97909.09;5074863;28;20022;-56
2022/01/03 06:10:36;;;;;;;22.23;3.33;;;;;;;11.01;100.00;97901.25;5073132;28;20024;-58
2022/01/03 06:13:01;;;;;;;23.02;3.53;;;;;;;10.84;100.00;97909.81;5077489;28;20497;-56
2022/01/03 06:15:27;;;;;;;21.08;3.55;;;;;;;10.99;100.00;97897.84;5076502;28;20609;-56
2022/01/03 06:17:53;;;;;;;22.77;3.80;;;;;;;10.80;100.00;97903.88;5071946;28;20470;-57
2022/01/03 06:20:19;;;;;;;22.15;3.53;;;;;;;10.30;100.00;97903.41;5079981;28;20035;-56
2022/01/03 06:22:44;;;;;;;19.25;3.88;;;;;;;10.08;100.00;97904.25;5075509;28;20024;-56
2022/01/03 06:25:11;;;;;;;22.58;3.53;;;;;;;9.43;100.00;97919.81;5073261;28;20032;-55
2022/01/03 06:27:38;;;;;;;25.90;3.60;;;;;;;9.75;100.00;97922.94;5080437;28;20016;-59
2022/01/03 06:30:08;;;;;;;22.35;3.72;;;;;;;9.73;100.00;97923.91;5077916;28;20131;-55
2022/01/03 06:32:34;;;;;;;24.52;3.78;;;;;;;8.90;100.00;97922.63;5070467;28;20151;-58
2022/01/03 06:34:59;;;;;;;26.77;3.70;;;;;;;8.70;100.00;97917.28;5075530;28;20110;-56
2022/01/03 06:37:25;;;;;;;23.90;3.58;;;;;;;8.57;100.00;97917.69;5075702;28;20197;-56
2022/01/03 06:39:50;;;;;;;29.45;3.45;;;;;;;8.65;100.00;97928.66;5073627;28;20024;-58
2022/01/03 06:42:16;;;;;;;32.97;6.15;;;;;;;10.22;100.00;97938.44;5077563;28;20753;-58
2022/01/03 06:44:43;;;;;;;33.70;5.53;;;;;;;11.27;100.00;97949.69;5076796;28;20027;-57
2022/01/03 06:47:09;;;;;;;25.98;3.88;;;;;;;9.36;100.00;97931.34;5071374;28;20032;-56
2022/01/03 06:49:35;;;;;;;21.08;3.35;;;;;;;9.20;100.00;97935.44;5077937;28;20093;-56
2022/01/03 06:52:00;;;;;;;28.58;3.75;;;;;;;8.75;100.00;97928.34;5063164;28;20135;-58
2022/01/03 06:54:25;;;;;;;28.05;4.13;;;;;;;9.12;100.00;97927.91;5073674;28;20040;-57
2022/01/03 06:56:50;;;;;;;28.13;4.10;;;;;;;8.80;100.00;97921.25;5073191;28;20036;-56
2022/01/03 06:59:16;;;;;;;26.52;3.80;;;;;;;8.86;100.00;97923.66;5073455;28;20089;-57
2022/01/03 07:01:41;;;;;;;31.70;4.10;;;;;;;8.88;100.00;97925.28;5077013;28;20148;-55
2022/01/03 07:04:06;;;;;;;27.23;3.75;;;;;;;8.79;100.00;97924.75;5077500;28;20072;-57
2022/01/03 07:06:32;;;;;;;26.02;4.03;;;;;;;8.77;100.00;97926.56;5075010;28;20147;-56
2022/01/03 07:08:58;;;;;;;24.63;3.72;;;;;;;8.62;100.00;97933.13;5077364;28;20036;-56
2022/01/03 07:11:23;;;;;;;25.75;3.28;;;;;;;8.83;100.00;97940.19;5076704;28;20040;-56
2022/01/03 07:13:52;;;;;;;26.65;3.67;;;;;;;8.64;100.00;97937.38;5076465;28;20016;-56
2022/01/03 07:19:06;;;;;;;24.52;3.80;;;;;;;8.48;100.00;97942.25;5080519;28;20860;-59
2022/01/03 07:21:33;;;;;;;28.70;3.65;;;;;;;8.44;100.00;97934.63;5072815;28;20487;-56
2022/01/03 07:23:59;;;;;;;24.27;3.55;;;;;;;8.17;100.00;97936.31;5073907;28;20012;-56
2022/01/03 07:26:25;;;;;;;29.75;4.32;;;;;;;8.46;100.00;97938.00;5074409;28;20048;-57
2022/01/03 07:28:51;;;;;;;29.52;4.32;;;;;;;8.30;100.00;97930.66;5077920;28;20110;-56
2022/01/03 07:31:17;;;;;;;28.73;4.13;;;;;;;8.68;100.00;97927.72;5079971;28;20415;-56
2022/01/03 07:33:43;;;;;;;25.80;4.03;;;;;;;8.37;100.00;97922.69;5081384;28;20538;-57
2022/01/03 07:36:09;;;;;;;27.73;4.15;;;;;;;8.37;100.00;97930.47;5079386;28;20709;-58
2022/01/03 07:38:35;;;;;;;24.67;3.70;;;;;;;8.71;100.00;97937.16;5080579;28;20023;-56
2022/01/03 07:41:00;;;;;;;29.60;3.97;;;;;;;8.83;100.00;97948.00;5080961;28;20081;-59
2022/01/03 07:43:25;;;;;;;31.25;4.55;;;;;;;9.23;100.00;97940.53;5075921;28;20127;-57
2022/01/03 07:45:50;;;;;;;22.65;3.50;;;;;;;9.03;100.00;97936.88;5077265;28;20031;-58
2022/01/03 07:48:16;;;;;;;26.67;3.80;;;;;;;9.16;100.00;97941.66;5079363;28;20620;-57
2022/01/03 07:50:41;;;;;;;26.92;3.35;;;;;;;9.23;100.00;97949.19;5085152;28;20949;-58
2022/01/03 07:53:07;;;;;;;22.45;3.38;;;;;;;9.17;100.00;97951.16;5081001;28;20054;-56
2022/01/03 07:55:33;;;;;;;27.33;3.72;;;;;;;8.95;100.00;97951.94;5079300;28;20089;-57
2022/01/03 07:57:58;;;;;;;29.25;4.15;;;;;;;9.25;100.00;97954.34;5077268;28;20028;-59
2022/01/03 08:00:24;;;;;;;19.98;3.10;;;;;;;9.12;100.00;97947.88;5080700;28;20024;-56
2022/01/03 08:02:49;;;;;;;20.13;3.45;;;;;;;8.94;100.00;97952.81;5080008;28;20038;-56
2022/01/03 08:05:15;;;;;;;24.55;3.70;;;;;;;9.11;100.00;97949.63;5076433;28;20066;-57
2022/01/03 08:07:43;;;;;;;22.42;3.40;;;;;;;8.97;100.00;97946.66;5076968;28;20027;-58
2022/01/03 08:10:11;;;;;;;26.75;3.60;;;;;;;9.05;100.00;97939.44;5074669;28;20952;-58
2022/01/03 08:12:37;;;;;;;20.27;3.15;;;;;;;8.87;100.00;97940.94;5077320;28;20040;-56
2022/01/03 08:15:04;;;;;;;14.68;2.70;;;;;;;8.90;100.00;97930.44;5075976;28;20024;-55
2022/01/03 08:17:29;;;;;;;26.83;3.80;;;;;;;9.19;100.00;97933.72;5077540;28;20033;-56
2022/01/03 08:19:55;;;;;;;27.65;4.03;;;;;;;9.09;100.00;97941.03;5077198;28;20034;-56
2022/01/03 08:22:20;;;;;;;18.20;2.80;;;;;;;9.04;100.00;97938.59;5082396;28;20044;-56
2022/01/03 08:24:46;;;;;;;24.38;3.53;;;;;;;9.09;100.00;97942.78;5080770;28;20139;-55
2022/01/03 08:27:11;;;;;;;22.90;3.38;;;;;;;9.18;100.00;97942.44;5073654;28;20040;-56
2022/01/03 08:29:37;;;;;;;21.58;3.42;;;;;;;9.16;100.00;97952.91;5077030;28;20052;-58
2022/01/03 08:32:03;;;;;;;25.90;3.83;;;;;;;9.64;100.00;97951.16;5075159;28;20039;-57
2022/01/03 08:34:28;;;;;;;26.90;4.13;;;;;;;9.60;100.00;97944.38;5075138;28;20032;-57
2022/01/03 08:36:54;;;;;;;29.70;4.10;;;;;;;9.93;100.00;97951.78;5074661;28;20078;-59
2022/01/03 08:39:19;;;;;;;24.70;3.67;;;;;;;9.75;100.00;97954.19;5077671;28;20413;-59
2022/01/03 08:41:44;;;;;;;27.15;3.70;;;;;;;9.64;100.00;97956.34;5075315;28;20047;-56
2022/01/03 08:44:10;;;;;;;21.23;3.58;;;;;;;9.53;100.00;97953.31;5078035;28;20028;-56
2022/01/03 08:46:35;;;;;;;29.83;4.50;;;;;;;9.64;100.00;97958.97;5078537;28;20088;-58
2022/01/03 08:49:01;;;;;;;20.17;3.80;;;;;;;9.89;100.00;97958.00;5076317;28;20067;-57
2022/01/03 08:51:26;;;;;;;21.98;3.55;;;;;;;9.79;100.00;97953.16;5079673;28;20731;-57
2022/01/03 08:53:52;;;;;;;21.17;3.58;;;;;;;9.76;100.00;97960.25;5078725;28;20035;-59
2022/01/03 08:56:18;;;;;;;24.95;4.28;;;;;;;9.96;100.00;97962.06;5091591;27;20036;-57
2022/01/03 08:58:43;;;;;;;19.63;3.55;;;;;;;10.31;100.00;97958.13;5076972;28;20032;-59
2022/01/03 09:01:09;;;;;;;23.85;4.00;;;;;;;10.09;100.00;97955.50;5078050;28;20045;-58
2022/01/03 09:03:34;;;;;;;17.83;3.05;;;;;;;10.41;100.00;97955.97;5075929;28;20126;-57
2022/01/03 09:06:00;;;;;;;24.30;3.70;;;;;;;10.44;100.00;97952.38;5080759;28;20040;-58
2022/01/03 09:08:25;;;;;;;23.88;3.85;;;;;;;10.20;100.00;97955.03;5080065;28;20031;-57
2022/01/03 09:10:51;;;;;;;17.02;3.17;;;;;;;10.05;100.00;97961.72;5075055;28;20461;-58
2022/01/03 09:13:17;;;;;;;27.10;4.05;;;;;;;10.31;100.00;97967.69;5078086;28;20684;-58
2022/01/03 09:15:46;;;;;;;22.15;3.83;;;;;;;10.27;100.00;97981.72;5079235;28;20036;-57
2022/01/03 09:18:12;;;;;;;20.90;3.47;;;;;;;10.15;100.00;97975.25;5078297;28;20024;-58
2022/01/03 09:20:38;;;;;;;17.98;3.42;;;;;;;10.47;100.00;97968.75;5078853;28;20120;-57
2022/01/03 09:23:14;;;;;;;19.67;3.42;;;;;;;10.02;100.00;97982.69;5076752;28;20028;-58
2022/01/03 09:30:50;;;;;;;17.95;3.22;;;;;;;10.26;100.00;97969.63;5075310;28;20535;-57
2022/01/03 09:33:16;;;;;;;22.65;3.90;;;;;;;10.36;100.00;97966.56;5075216;28;20233;-60
2022/01/03 09:35:42;;;;;;;23.63;3.55;;;;;;;9.98;100.00;97962.84;5074487;28;20055;-58
2022/01/03 09:38:07;;;;;;;23.80;3.78;;;;;;;10.17;100.00;97971.66;5076901;28;20013;-59
2022/01/03 09:40:34;;;;;;;25.00;4.53;;;;;;;10.27;100.00;97964.31;5075811;28;20465;-55
2022/01/03 09:43:01;;;;;;;20.70;3.60;;;;;;;10.39;100.00;97952.59;5074615;28;20551;-56
2022/01/03 09:45:28;;;;;;;22.20;3.55;;;;;;;10.18;100.00;97967.28;5074430;28;20041;-56
2022/01/03 09:47:55;;;;;;;26.92;4.97;;;;;;;10.49;100.00;97956.50;5081078;28;20012;-56
2022/01/03 09:50:22;;;;;;;26.67;4.47;;;;;;;10.44;100.00;97958.47;5075756;28;20016;-55
2022/01/03 09:52:49;;;;;;;35.35;5.88;;;;;;;10.37;100.00;97964.84;5074569;28;20017;-56
2022/01/03 09:55:16;;;;;;;27.65;5.35;;;;;;;10.54;100.00;97957.16;5073036;28;20021;-56
2022/01/03 09:57:45;;;;;;;27.67;4.80;;;;;;;10.68;100.00;97958.34;5071712;28;20028;-56
2022/01/03 10:00:12;;;;;;;24.00;4.35;;;;;;;10.61;100.00;97956.00;5076546;28;20032;-56
2022/01/03 10:02:38;;;;;;;22.05;3.88;;;;;;;10.84;100.00;97951.56;5076283;28;20023;-57
2022/01/03 10:05:05;;;;;;;22.40;3.75;;;;;;;11.27;100.00;97949.69;5078602;28;20032;-55
2022/01/03 10:07:31;;;;;;;27.00;4.70;;;;;;;11.06;100.00;97942.81;5075501;28;20483;-55
2022/01/03 10:09:57;;;;;;;22.55;4.30;;;;;;;10.87;100.00;97935.78;5076154;28;20139;-56
2022/01/03 10:12:22;;;;;;;23.15;4.18;;;;;;;11.19;100.00;97937.00;5080790;28;20074;-59
2022/01/03 10:14:48;;;;;;;27.48;4.57;;;;;;;11.22;100.00;97933.38;5074745;28;20382;-56
2022/01/03 10:17:13;;;;;;;23.98;4.22;;;;;;;11.08;100.00;97933.13;5072822;28;20036;-58
2022/01/03 10:19:57;;;;;;;24.52;4.10;;;;;;;11.17;100.00;97927.50;5079643;28;20027;-58
2022/01/03 10:22:29;;;;;;;22.98;3.85;;;;;;;11.55;100.00;97927.56;5064432;28;20065;-57
2022/01/03 10:24:57;;;;;;;23.53;3.83;;;;;;;10.89;100.00;97925.28;5075454;28;20135;-57
2022/01/03 10:27:24;;;;;;;24.30;4.07;;;;;;;11.15;100.00;97918.91;5073419;28;20306;-58
2022/01/03 10:29:55;;;;;;;20.63;3.80;;;;;;;11.34;100.00;97925.00;5059231;28;20443;-58
2022/01/03 10:32:30;;;;;;;27.10;4.70;;;;;;;11.30;100.00;97923.47;5082803;28;20714;-56
2022/01/03 10:35:14;;;;;;;25.67;3.95;;;;;;;11.23;100.00;97921.16;5079848;28;20032;-57
2022/01/03 10:37:40;;;;;;;24.08;4.05;;;;;;;11.33;100.00;97922.47;5081516;28;20047;-58
2022/01/03 10:40:17;;;;;;;17.88;3.10;;;;;;;10.94;100.00;97918.94;5073583;28;20024;-57
2022/01/03 10:42:42;;;;;;;24.52;4.07;;;;;;;11.16;100.00;97915.38;5078811;28;20512;-59
2022/01/03 10:45:08;;;;;;;27.73;4.40;;;;;;;11.24;100.00;97915.88;5072663;28;20667;-60
2022/01/03 10:47:34;;;;;;;24.23;3.92;;;;;;;11.38;100.00;97908.28;5078186;28;20446;-59
2022/01/03 10:50:12;;;;;;;25.90;4.43;;;;;;;11.07;100.00;97903.59;5076548;28;20460;-58
2022/01/03 10:52:40;;;;;;;28.35;4.57;;;;;;;11.27;100.00;97894.88;5076622;28;20044;-59
2022/01/03 10:55:15;;;;;;;23.50;4.00;;;;;;;10.74;100.00;97898.09;5078151;28;20580;-57
2022/01/03 10:57:57;;;;;;;22.42;3.97;;;;;;;11.11;100.00;97893.84;5074298;28;20030;-56
2022/01/03 11:00:24;;;;;;;26.17;4.18;;;;;;;11.05;100.00;97888.91;5077884;28;20035;-58
2022/01/03 11:06:24;;;;;;;28.08;4.88;;;;;;;11.15;100.00;97882.34;5077327;28;20047;-57
2022/01/03 11:11:38;;;;;;;27.05;4.18;;;;;;;10.96;100.00;97877.13;5079656;28;20047;-57
2022/01/03 11:14:04;;;;;;;30.65;4.43;;;;;;;10.95;100.00;97863.25;5078962;28;20028;-58
2022/01/03 11:16:35;;;;;;;43.85;6.40;;;;;;;10.71;100.00;97877.34;5080257;28;20047;-57
2022/01/03 11:19:01;;;;;;;23.52;3.72;;;;;;;10.55;100.00;97871.94;5080762;28;20031;-59
2022/01/03 11:21:28;;;;;;;22.27;4.03;;;;;;;10.41;100.00;97875.16;5077687;28;20058;-56
2022/01/03 11:24:02;;;;;;;22.45;3.58;;;;;;;10.88;100.00;97871.38;5075795;28;20069;-59
2022/01/03 11:26:30;;;;;;;25.73;3.97;;;;;;;10.20;100.00;97874.25;5075975;28;20080;-57
2022/01/03 11:28:57;;;;;;;26.65;3.78;;;;;;;10.73;100.00;97867.69;5080574;28;20081;-57
2022/01/03 11:31:23;;;;;;;28.40;4.05;;;;;;;11.02;100.00;97876.00;5077202;28;20875;-58
2022/01/03 11:33:51;;;;;;;25.88;3.88;;;;;;;10.83;100.00;97863.78;5077886;28;20034;-57
2022/01/03 11:36:19;;;;;;;27.25;4.28;;;;;;;10.78;100.00;97863.13;5075692;28;20051;-57